createdAt,value
2023-04-11T00:02:55.177Z,100204.94
2023-04-11T00:08:23.378Z,100202.34
2023-04-11T00:13:51.348Z,100194.34
2023-04-11T00:19:23.510Z,100182.28
2023-04-11T00:24:53.321Z,100187.28
2023-04-11T00:30:20.904Z,100176.25
2023-04-11T00:35:47.888Z,100173.28
2023-04-11T00:41:14.814Z,100157.59
2023-04-11T00:46:46.658Z,100157.09
2023-04-11T00:52:14.343Z,100158.53
2023-04-11T00:57:43.081Z,100145.00
2023-04-11T01:03:10.537Z,100134.69
2023-04-11T01:08:39.239Z,100122.09
2023-04-11T01:14:07.490Z,100122.19
2023-04-11T01:19:35.095Z,100129.94
2023-04-11T01:25:02.393Z,100126.28
2023-04-11T01:30:30.060Z,100113.66
2023-04-11T01:35:57.294Z,100105.94
2023-04-11T01:41:26.997Z,100084.97
2023-04-11T01:46:54.214Z,100083.84
2023-04-11T01:52:22.100Z,100076.56
2023-04-11T01:57:49.310Z,100074.81
2023-04-11T02:03:21.384Z,100060.03
2023-04-11T02:08:49.455Z,100050.63
2023-04-11T02:14:20.595Z,100040.38
2023-04-11T02:19:48.490Z,100023.56
2023-04-11T02:25:16.349Z,100012.06
2023-04-11T02:30:43.213Z,100004.00
2023-04-11T02:36:12.772Z,100002.25
2023-04-11T02:41:41.041Z,99998.59
2023-04-11T02:47:08.803Z,99998.38
2023-04-11T02:52:39.624Z,99994.81
2023-04-11T02:58:07.560Z,99986.59
2023-04-11T03:03:35.533Z,99982.44
2023-04-11T03:09:04.305Z,99978.81
2023-04-11T03:14:33.068Z,99979.22
2023-04-11T03:20:01.196Z,99959.44
2023-04-11T03:25:29.932Z,99959.28
2023-04-11T03:30:57.289Z,99942.09
2023-04-11T03:36:28.899Z,99939.75
2023-04-11T03:42:02.562Z,99938.78
2023-04-11T03:47:31.900Z,99922.75
2023-04-11T03:52:59.364Z,99923.00
2023-04-11T03:58:28.601Z,99913.34
2023-04-11T04:03:56.757Z,99910.81
2023-04-11T04:09:24.726Z,99904.09
2023-04-11T04:14:55.580Z,99887.44
2023-04-11T04:20:23.678Z,99891.13
2023-04-11T04:25:58.244Z,99894.41
2023-04-11T04:31:33.925Z,99903.13
2023-04-11T04:37:06.846Z,99902.72
2023-04-11T04:42:44.346Z,99889.09
2023-04-11T04:48:14.716Z,99864.66
2023-04-11T04:53:42.922Z,99860.50
2023-04-11T04:59:14.972Z,99860.06
2023-04-11T05:04:48.878Z,99864.00
2023-04-11T05:10:16.858Z,99858.56
2023-04-11T05:15:49.596Z,99863.91
2023-04-11T05:21:16.722Z,99847.66
2023-04-11T05:26:47.114Z,99820.44
2023-04-11T05:32:18.583Z,99820.44
2023-04-11T05:37:46.299Z,99804.59
2023-04-11T05:43:15.475Z,99786.59
2023-04-11T05:48:43.052Z,99772.91
2023-04-11T05:54:11.159Z,99755.09
2023-04-11T05:59:38.939Z,99745.16
2023-04-11T06:05:06.553Z,99734.00
2023-04-11T06:10:34.843Z,99726.38
2023-04-11T06:16:02.814Z,99723.34
2023-04-11T06:21:32.133Z,99711.88
2023-04-11T06:27:00.040Z,99710.56
2023-04-11T06:32:28.454Z,99710.41
2023-04-11T06:37:56.189Z,99705.88
2023-04-11T06:43:25.510Z,99709.50
2023-04-11T06:48:53.003Z,99701.03
2023-04-11T06:54:21.356Z,99684.44
2023-04-11T06:59:48.979Z,99683.16
2023-04-11T07:05:16.454Z,99669.38
2023-04-11T07:10:44.264Z,99681.41
2023-04-11T07:16:12.245Z,99666.88
2023-04-11T07:21:40.041Z,99673.81
2023-04-11T07:27:07.204Z,99684.44
2023-04-11T07:32:34.888Z,99672.50
2023-04-11T07:38:02.368Z,99678.63
2023-04-11T07:43:30.673Z,99659.38
2023-04-11T07:48:58.112Z,99651.50
2023-04-11T07:54:28.761Z,99643.34
2023-04-11T07:59:57.418Z,99635.19
2023-04-11T08:05:26.069Z,99627.41
2023-04-11T08:10:53.106Z,99621.47
2023-04-11T08:16:20.371Z,99608.28
2023-04-11T08:21:48.552Z,99617.47
2023-04-11T08:27:16.399Z,99611.66
2023-04-11T08:32:44.737Z,99598.31
2023-04-11T08:38:12.542Z,99589.34
2023-04-11T08:43:40.602Z,99577.50
2023-04-11T08:49:08.732Z,99559.25
2023-04-11T08:54:36.321Z,99564.34
2023-04-11T09:00:15.325Z,99565.38
2023-04-11T09:05:44.816Z,99555.22
2023-04-11T09:11:12.403Z,99542.03
2023-04-11T09:16:54.550Z,99539.34
2023-04-11T09:22:36.602Z,99543.59
2023-04-11T09:28:10.483Z,99528.16
2023-04-11T09:33:37.302Z,99521.19
2023-04-11T09:39:20.636Z,99500.28
2023-04-11T09:44:48.472Z,99488.66
2023-04-11T09:50:16.233Z,99478.81
2023-04-11T09:55:43.219Z,99473.66
2023-04-11T10:01:10.950Z,99482.97
2023-04-11T10:07:02.361Z,99503.03
2023-04-11T10:12:34.143Z,99496.72
2023-04-11T10:18:11.939Z,99509.09
2023-04-11T10:24:15.878Z,99514.09
2023-04-11T10:29:50.730Z,99518.47
2023-04-11T10:35:18.155Z,99520.63
2023-04-11T10:41:17.491Z,99501.19
2023-04-11T10:46:49.973Z,99513.13
2023-04-11T10:52:24.028Z,99519.56
2023-04-11T10:58:20.052Z,99527.63
2023-04-11T11:03:57.162Z,99538.94
2023-04-11T11:09:25.901Z,99556.59
2023-04-11T11:14:54.765Z,99554.69
2023-04-11T11:20:22.014Z,99569.38
2023-04-11T11:25:57.400Z,99564.38
2023-04-11T11:31:35.274Z,99573.75
2023-04-11T11:37:07.346Z,99575.59
2023-04-11T11:42:37.017Z,99579.97
2023-04-11T11:48:05.028Z,99594.78
2023-04-11T11:53:33.132Z,99606.56
2023-04-11T11:59:00.995Z,99605.53
2023-04-11T12:04:31.222Z,99608.22
2023-04-11T12:10:22.813Z,99618.81
2023-04-11T12:15:55.852Z,99633.59
2023-04-11T12:21:22.693Z,99623.22
2023-04-11T12:27:05.649Z,99611.44
2023-04-11T12:32:35.379Z,99606.31
2023-04-11T12:38:04.511Z,99600.03
2023-04-11T12:43:32.476Z,99590.69
2023-04-11T12:49:00.136Z,99599.81
2023-04-11T12:54:28.180Z,99589.25
2023-04-11T12:59:56.283Z,99584.06
2023-04-11T13:05:24.570Z,99585.06
2023-04-11T13:10:53.449Z,99566.69
2023-04-11T13:16:21.566Z,99540.69
2023-04-11T13:21:49.509Z,99550.38
2023-04-11T13:27:17.484Z,99569.81
2023-04-11T13:32:45.106Z,99582.72
2023-04-11T13:38:12.973Z,99603.59
2023-04-11T13:43:39.901Z,99614.88
2023-04-11T13:49:07.188Z,99617.66
2023-04-11T13:54:33.918Z,99609.16
2023-04-11T14:00:00.979Z,99609.09
2023-04-11T14:05:28.877Z,99601.47
2023-04-11T14:10:56.652Z,99605.88
2023-04-11T14:16:24.049Z,99601.97
2023-04-11T14:21:52.238Z,99594.13
2023-04-11T14:27:19.248Z,99594.34
2023-04-11T14:32:46.329Z,99590.34
2023-04-11T14:38:16.091Z,99595.94
2023-04-11T14:43:43.266Z,99590.81
2023-04-11T14:49:10.198Z,99587.97
2023-04-11T14:54:37.607Z,99583.59
2023-04-11T15:00:06.771Z,99584.16
2023-04-11T15:05:34.422Z,99588.66
2023-04-11T15:11:03.551Z,99599.25
2023-04-11T15:16:32.320Z,99598.34
2023-04-11T15:21:59.348Z,99595.09
2023-04-11T15:27:27.887Z,99591.88
2023-04-11T15:32:55.380Z,99599.03
2023-04-11T15:38:23.278Z,99608.44
2023-04-11T15:43:50.789Z,99606.50
2023-04-11T15:49:18.626Z,99602.59
2023-04-11T15:54:46.684Z,99598.19
2023-04-11T16:00:15.906Z,99596.78
2023-04-11T16:05:44.373Z,99587.59
2023-04-11T16:11:11.778Z,99590.34
2023-04-11T16:16:39.516Z,99596.63
2023-04-11T16:22:06.502Z,99602.25
2023-04-11T16:27:34.155Z,99604.81
2023-04-11T16:33:02.061Z,99604.44
2023-04-11T16:38:29.652Z,99600.72
2023-04-11T16:43:56.839Z,99601.88
2023-04-11T16:49:25.267Z,99606.53
2023-04-11T16:54:53.032Z,99605.81
2023-04-11T17:00:20.970Z,99605.56
2023-04-11T17:05:48.663Z,99614.91
2023-04-11T17:11:15.882Z,99626.63
2023-04-11T17:16:44.034Z,99641.97
2023-04-11T17:22:11.900Z,99643.44
2023-04-11T17:27:41.631Z,99652.78
2023-04-11T17:33:09.973Z,99649.34
2023-04-11T17:38:39.659Z,99655.06
2023-04-11T17:44:06.910Z,99668.97
2023-04-11T17:49:34.740Z,99679.94
2023-04-11T17:55:03.711Z,99681.88
2023-04-11T18:00:31.929Z,99689.63
2023-04-11T18:06:01.449Z,99706.59
2023-04-11T18:11:28.895Z,99738.84
2023-04-11T18:16:56.171Z,99737.97
2023-04-11T18:22:23.891Z,99760.22
2023-04-11T18:27:51.921Z,99774.28
2023-04-11T18:33:20.729Z,99775.31
2023-04-11T18:38:49.392Z,99765.47
2023-04-11T18:44:17.205Z,99749.66
2023-04-11T18:49:44.960Z,99741.66
2023-04-11T18:55:12.189Z,99750.38
2023-04-11T19:00:40.216Z,99755.84
2023-04-11T19:06:08.780Z,99751.88
2023-04-11T19:11:38.383Z,99765.59
2023-04-11T19:17:06.724Z,99764.06
2023-04-11T19:22:36.064Z,99750.97
2023-04-11T19:28:03.272Z,99749.06
2023-04-11T19:33:31.836Z,99749.56
2023-04-11T19:38:58.913Z,99749.63
2023-04-11T19:44:26.188Z,99747.75
2023-04-11T19:49:54.533Z,99745.38
2023-04-11T19:55:22.710Z,99741.34
2023-04-11T20:00:50.241Z,99744.53
2023-04-11T20:06:18.869Z,99743.75
2023-04-11T20:11:47.980Z,99754.25
2023-04-11T20:17:16.070Z,99759.78
2023-04-11T20:22:45.044Z,99759.91
2023-04-11T20:28:12.802Z,99764.47
2023-04-11T20:33:40.309Z,99771.47
2023-04-11T20:39:08.225Z,99779.16
2023-04-11T20:44:37.132Z,99778.06
2023-04-11T20:50:10.549Z,99780.34
2023-04-11T20:55:38.227Z,99785.47
2023-04-11T21:01:05.685Z,99778.66
2023-04-11T21:06:33.818Z,99785.38
2023-04-11T21:12:02.532Z,99790.06
2023-04-11T21:17:34.849Z,99791.72
2023-04-11T21:23:03.154Z,99792.78
2023-04-11T21:28:31.179Z,99784.97
2023-04-11T21:33:58.747Z,99781.06
2023-04-11T21:39:26.560Z,99787.94
2023-04-11T21:44:54.665Z,99793.13
2023-04-11T21:50:22.669Z,99799.91
2023-04-11T21:55:50.640Z,99795.41
2023-04-11T22:01:20.962Z,99790.91
2023-04-11T22:06:48.640Z,99792.34
2023-04-11T22:12:18.078Z,99796.63
2023-04-11T22:17:51.270Z,99808.22
2023-04-11T22:23:18.551Z,99806.50
2023-04-11T22:28:46.628Z,99815.22
2023-04-11T22:34:14.404Z,99821.22
2023-04-11T22:39:41.747Z,99827.56
2023-04-11T22:45:10.270Z,99824.44
2023-04-11T22:50:37.524Z,99823.06
2023-04-11T22:56:06.069Z,99824.88
2023-04-11T23:01:33.789Z,99825.66
2023-04-11T23:07:02.070Z,99819.41
2023-04-11T23:12:29.937Z,99809.66
2023-04-11T23:17:58.609Z,99807.75
2023-04-11T23:23:25.537Z,99807.41
2023-04-11T23:28:53.554Z,99802.47
2023-04-11T23:34:21.210Z,99797.00
2023-04-11T23:39:49.263Z,99781.03
2023-04-11T23:45:20.771Z,99775.03
2023-04-11T23:50:49.077Z,99784.00
2023-04-11T23:56:17.054Z,99774.13
